Time;durP1;ratioP1;P1;durP2;ratioP2;P2;SDS_P1;SDS_P2;PMS_P1;PMS_P2;Temp;Humidity;BMP_temperature;BMP_pressure;BME280_temperature;BME280_humidity;BME280_pressure;Samples;Min_cycle;Max_cycle;Signal;HPM_P1;HPM_P2
2023/01/25 00:01:05;;;;;;;48.95;18.48;;;;;;;2.59;100.00;100146.19;2550540;29;20051;-91
2023/01/25 00:02:20;;;;;;;51.30;19.65;;;;;;;2.59;100.00;100142.75;2551293;29;20079;-92
2023/01/25 00:03:36;;;;;;;57.38;18.58;;;;;;;2.34;100.00;100145.38;2551306;29;20058;-91
2023/01/25 00:04:52;;;;;;;60.88;21.67;;;;;;;2.24;100.00;100140.75;2550998;28;20430;-92
2023/01/25 00:06:07;;;;;;;57.65;19.05;;;;;;;2.08;100.00;100137.63;2551496;29;20494;-93
2023/01/25 00:07:23;;;;;;;58.45;19.65;;;;;;;1.75;100.00;100145.13;2551943;28;20511;-93
2023/01/25 00:08:39;;;;;;;49.67;17.25;;;;;;;2.03;100.00;100141.78;2550364;28;20423;-92
2023/01/25 00:09:54;;;;;;;56.65;20.02;;;;;;;2.02;100.00;100150.34;2552813;29;20053;-92
2023/01/25 00:11:09;;;;;;;59.00;19.60;;;;;;;2.17;100.00;100143.94;2550553;28;20059;-91
2023/01/25 00:12:25;;;;;;;55.17;20.35;;;;;;;2.43;100.00;100143.94;2551551;28;20052;-92
2023/01/25 00:13:41;;;;;;;59.08;20.75;;;;;;;2.68;100.00;100149.06;2550989;29;20557;-91
2023/01/25 00:14:57;;;;;;;58.40;20.38;;;;;;;2.55;100.00;100141.75;2551749;28;20491;-91
2023/01/25 00:16:13;;;;;;;56.20;19.67;;;;;;;2.06;100.00;100144.47;2551455;29;20062;-92
2023/01/25 00:17:29;;;;;;;55.80;20.58;;;;;;;2.08;100.00;100145.38;2552730;29;20525;-92
2023/01/25 00:18:44;;;;;;;60.42;20.55;;;;;;;2.12;100.00;100146.38;2552623;29;20383;-91
2023/01/25 00:20:00;;;;;;;60.20;20.63;;;;;;;2.14;100.00;100151.59;2552709;28;20070;-92
2023/01/25 00:21:18;;;;;;;54.10;19.02;;;;;;;2.42;100.00;100149.94;2551592;29;20388;-91
2023/01/25 00:22:34;;;;;;;59.08;19.95;;;;;;;2.30;100.00;100153.88;2551480;29;20094;-91
2023/01/25 00:23:50;;;;;;;57.00;18.83;;;;;;;2.45;100.00;100143.16;2551857;29;20373;-91
2023/01/25 00:25:06;;;;;;;54.75;18.63;;;;;;;2.25;100.00;100140.78;2551443;29;20318;-91
2023/01/25 00:26:22;;;;;;;55.17;19.70;;;;;;;2.40;100.00;100140.44;2552479;29;20059;-92
2023/01/25 00:27:37;;;;;;;54.47;18.58;;;;;;;2.54;100.00;100135.69;2551938;29;20110;-92
2023/01/25 00:28:54;;;;;;;59.10;19.85;;;;;;;2.65;100.00;100133.47;2551911;29;20929;-92
2023/01/25 00:30:10;;;;;;;58.60;19.73;;;;;;;2.78;100.00;100142.47;2552739;29;20059;-92
2023/01/25 00:31:47;;;;;;;54.28;17.85;;;;;;;2.36;100.00;100135.97;2550943;29;20415;-91
2023/01/25 00:33:15;;;;;;;54.13;17.83;;;;;;;2.42;100.00;100145.63;2552512;29;20378;-92
2023/01/25 00:34:46;;;;;;;55.30;19.42;;;;;;;2.44;100.00;100137.94;2550765;29;20054;-91
2023/01/25 00:36:22;;;;;;;62.17;19.52;;;;;;;2.26;100.00;100139.09;2551984;29;20047;-92
2023/01/25 00:37:48;;;;;;;46.10;16.55;;;;;;;2.27;100.00;100138.28;2550833;29;20068;-91
2023/01/25 00:39:05;;;;;;;58.25;18.75;;;;;;;2.33;100.00;100138.44;2551389;29;20066;-90
2023/01/25 00:40:20;;;;;;;54.00;20.20;;;;;;;2.57;100.00;100137.50;2550643;29;20197;-90
2023/01/25 00:41:36;;;;;;;54.58;19.70;;;;;;;2.19;100.00;100137.13;2552516;28;20060;-90
2023/01/25 00:42:52;;;;;;;56.25;19.02;;;;;;;2.31;100.00;100142.69;2551697;28;20498;-90
2023/01/25 00:44:07;;;;;;;53.72;19.50;;;;;;;2.32;100.00;100128.94;2551477;29;20410;-91
2023/01/25 00:45:23;;;;;;;56.95;19.55;;;;;;;2.52;100.00;100131.31;2551099;29;20062;-93
2023/01/25 00:46:39;;;;;;;59.42;18.45;;;;;;;2.52;100.00;100128.72;2551258;28;20058;-90
2023/01/25 00:47:55;;;;;;;56.55;19.20;;;;;;;2.72;100.00;100123.28;2551078;29;20134;-90
2023/01/25 00:49:21;;;;;;;52.70;19.75;;;;;;;2.71;100.00;100126.72;2550995;29;20060;-91
2023/01/25 00:50:37;;;;;;;58.38;18.55;;;;;;;2.63;100.00;100121.31;2551634;29;20169;-91
2023/01/25 00:51:54;;;;;;;53.42;18.40;;;;;;;2.58;100.00;100128.91;2551447;28;20059;-89
2023/01/25 00:53:10;;;;;;;56.08;17.50;;;;;;;2.67;100.00;100120.56;2549825;28;20083;-91
2023/01/25 00:54:25;;;;;;;51.45;18.42;;;;;;;2.75;100.00;100120.81;2551725;29;20055;-91
2023/01/25 00:55:50;;;;;;;58.78;20.50;;;;;;;2.60;100.00;100122.06;2560452;28;20491;-90
2023/01/25 00:57:06;;;;;;;57.55;18.88;;;;;;;2.55;100.00;100113.31;2555886;28;20061;-90
2023/01/25 00:58:22;;;;;;;57.28;19.77;;;;;;;2.71;100.00;100114.66;2551738;29;20434;-90
2023/01/25 00:59:43;;;;;;;53.78;17.08;;;;;;;2.74;100.00;100119.03;2551053;28;20423;-91
2023/01/25 01:00:58;;;;;;;54.40;18.02;;;;;;;2.69;100.00;100113.72;2551582;29;20110;-93
2023/01/25 01:02:14;;;;;;;51.03;18.35;;;;;;;2.67;100.00;100118.88;2552741;28;20060;-90
2023/01/25 01:03:29;;;;;;;47.80;16.65;;;;;;;2.65;100.00;100114.47;2550290;29;20055;-91
2023/01/25 01:04:45;;;;;;;51.53;17.60;;;;;;;2.71;100.00;100122.41;2550618;29;20079;-91
2023/01/25 01:06:06;;;;;;;49.42;17.90;;;;;;;2.80;100.00;100124.44;2551735;29;20059;-95
2023/01/25 01:07:22;;;;;;;51.25;16.52;;;;;;;2.76;100.00;100125.13;2551310;29;20114;-93
2023/01/25 01:08:39;;;;;;;53.00;17.25;;;;;;;2.81;100.00;100129.63;2552013;28;20047;-92
2023/01/25 01:09:55;;;;;;;46.58;16.85;;;;;;;2.68;100.00;100120.63;2550504;29;20063;-90
2023/01/25 01:11:12;;;;;;;55.60;18.27;;;;;;;2.55;100.00;100126.25;2551180;29;20057;-92
2023/01/25 01:12:27;;;;;;;50.47;17.55;;;;;;;2.66;100.00;100129.16;2550377;29;20047;-92
2023/01/25 01:13:43;;;;;;;47.08;17.13;;;;;;;2.66;100.00;100130.03;2551765;29;20059;-91
2023/01/25 01:14:58;;;;;;;44.78;15.63;;;;;;;2.62;100.00;100132.47;2551670;28;20048;-91
2023/01/25 01:16:14;;;;;;;47.25;16.00;;;;;;;2.67;100.00;100120.56;2551552;28;20059;-92
2023/01/25 01:17:30;;;;;;;48.90;17.75;;;;;;;2.71;100.00;100122.41;2551054;29;20084;-91
2023/01/25 01:18:45;;;;;;;50.92;16.90;;;;;;;2.70;100.00;100130.13;2550207;29;20114;-90
2023/01/25 01:20:01;;;;;;;44.67;16.13;;;;;;;2.79;100.00;100133.00;2550669;29;20200;-90
2023/01/25 01:21:17;;;;;;;48.85;17.27;;;;;;;2.66;100.00;100126.56;2551643;29;20058;-91
2023/01/25 01:22:33;;;;;;;51.78;17.15;;;;;;;2.68;100.00;100123.22;2552055;29;20062;-91
2023/01/25 01:23:48;;;;;;;51.08;17.25;;;;;;;2.67;100.00;100124.03;2551311;29;20086;-90
2023/01/25 01:25:04;;;;;;;43.40;16.50;;;;;;;2.47;100.00;100125.09;2551415;29;20054;-91
2023/01/25 01:26:20;;;;;;;50.67;16.52;;;;;;;2.31;100.00;100124.59;2550402;29;20094;-91
2023/01/25 01:27:36;;;;;;;43.45;14.98;;;;;;;2.40;100.00;100124.91;2552309;29;20399;-91
2023/01/25 01:28:51;;;;;;;41.92;15.88;;;;;;;2.58;100.00;100126.31;2550343;29;20133;-92
2023/01/25 01:30:07;;;;;;;51.88;15.10;;;;;;;2.81;100.00;100131.34;2552485;29;20052;-92
2023/01/25 01:31:24;;;;;;;48.53;17.10;;;;;;;2.85;100.00;100121.94;2550362;29;20079;-92
2023/01/25 01:32:39;;;;;;;39.55;15.35;;;;;;;2.74;100.00;100125.09;2550846;28;20422;-91
2023/01/25 01:33:57;;;;;;;40.75;15.88;;;;;;;2.71;100.00;100130.16;2549777;29;20056;-91
2023/01/25 01:35:12;;;;;;;45.10;16.35;;;;;;;2.70;100.00;100125.81;2552372;29;20227;-90
2023/01/25 01:36:29;;;;;;;39.47;14.48;;;;;;;2.82;100.00;100133.97;2550564;29;20118;-91
2023/01/25 01:37:45;;;;;;;41.50;15.05;;;;;;;2.75;100.00;100128.56;2550333;29;20553;-92
2023/01/25 01:39:00;;;;;;;48.03;16.13;;;;;;;2.83;100.00;100127.09;2550900;29;20055;-92
2023/01/25 01:40:16;;;;;;;43.17;15.27;;;;;;;2.92;100.00;100127.34;2549268;29;20070;-91
2023/01/25 01:41:32;;;;;;;39.83;14.52;;;;;;;2.58;100.00;100128.03;2551371;29;20086;-92
2023/01/25 01:43:06;;;;;;;45.30;15.98;;;;;;;2.38;100.00;100117.94;2551089;28;20103;-91
2023/01/25 01:44:45;;;;;;;41.92;14.88;;;;;;;2.28;100.00;100123.63;2549969;29;20055;-93
2023/01/25 01:46:03;;;;;;;45.63;16.13;;;;;;;2.63;100.00;100118.72;2552137;29;20467;-91
2023/01/25 01:47:30;;;;;;;46.05;15.55;;;;;;;2.63;100.00;100119.59;2552381;28;20047;-91
2023/01/25 01:49:18;;;;;;;45.95;15.18;;;;;;;2.71;100.00;100119.81;2549490;29;20051;-91
2023/01/25 01:50:34;;;;;;;39.28;14.15;;;;;;;2.59;100.00;100122.91;2545362;29;20466;-92
2023/01/25 01:52:10;;;;;;;43.33;14.60;;;;;;;2.46;100.00;100120.75;2550465;29;20205;-91
2023/01/25 01:53:26;;;;;;;49.00;15.75;;;;;;;2.47;100.00;100119.94;2549807;28;20051;-91
2023/01/25 01:54:48;;;;;;;46.08;16.63;;;;;;;2.61;100.00;100121.25;2549099;28;20474;-91
2023/01/25 01:56:09;;;;;;;44.33;15.90;;;;;;;2.71;100.00;100118.97;2552378;29;20051;-91
2023/01/25 01:57:35;;;;;;;46.65;16.10;;;;;;;2.67;100.00;100121.47;2552903;28;20392;-89
2023/01/25 01:58:54;;;;;;;42.97;16.20;;;;;;;2.70;100.00;100118.06;2552654;29;20083;-91
2023/01/25 02:00:20;;;;;;;44.65;14.55;;;;;;;2.78;100.00;100121.78;2551422;29;20058;-92
2023/01/25 02:01:35;;;;;;;47.33;15.25;;;;;;;2.77;100.00;100120.03;2551864;29;20582;-92
2023/01/25 02:02:53;;;;;;;46.13;15.85;;;;;;;2.74;100.00;100113.88;2553860;29;20108;-92
2023/01/25 02:04:10;;;;;;;43.58;14.77;;;;;;;2.68;100.00;100115.44;2553204;29;20083;-91
2023/01/25 02:05:42;;;;;;;42.80;15.57;;;;;;;2.67;100.00;100111.13;2553171;29;20061;-93
2023/01/25 02:07:10;;;;;;;43.58;15.82;;;;;;;2.45;100.00;100112.16;2552032;29;20492;-91
2023/01/25 02:08:29;;;;;;;37.50;14.15;;;;;;;2.82;100.00;100109.81;2552636;29;20635;-91
2023/01/25 02:09:44;;;;;;;47.42;15.63;;;;;;;2.70;100.00;100110.31;2553724;29;20051;-91
2023/01/25 02:11:00;;;;;;;40.75;15.90;;;;;;;2.71;100.00;100114.66;2551885;28;20059;-91
2023/01/25 02:12:18;;;;;;;43.30;15.82;;;;;;;2.66;100.00;100119.69;2553873;29;20047;-92
2023/01/25 02:13:36;;;;;;;45.53;15.10;;;;;;;2.51;100.00;100108.84;2553442;28;20054;-92
2023/01/25 02:14:53;;;;;;;43.05;15.35;;;;;;;2.10;100.00;100110.16;2552369;29;20487;-90
2023/01/25 02:16:16;;;;;;;42.60;15.40;;;;;;;2.36;100.00;100110.13;2553176;29;20546;-91
2023/01/25 02:17:34;;;;;;;43.28;16.35;;;;;;;2.59;100.00;100109.13;2553032;29;20066;-91
2023/01/25 02:18:52;;;;;;;39.28;14.55;;;;;;;2.65;100.00;100110.19;2551828;29;20059;-92
2023/01/25 02:20:26;;;;;;;47.00;15.32;;;;;;;2.81;100.00;100108.06;2552238;29;20060;-92
2023/01/25 02:21:44;;;;;;;42.95;15.13;;;;;;;2.30;100.00;100112.50;2553866;29;20190;-92
2023/01/25 02:23:26;;;;;;;41.42;15.55;;;;;;;2.24;100.00;100109.75;2551086;29;20495;-92
2023/01/25 02:24:49;;;;;;;42.85;14.48;;;;;;;2.50;100.00;100112.25;2544592;29;20055;-91
2023/01/25 02:26:05;;;;;;;43.33;15.50;;;;;;;2.73;100.00;100110.44;2553278;28;20439;-91
2023/01/25 02:27:21;;;;;;;43.88;15.05;;;;;;;2.38;100.00;100111.06;2552208;29;20043;-92
2023/01/25 02:28:51;;;;;;;41.75;14.55;;;;;;;2.45;100.00;100104.38;2552559;28;20059;-92
2023/01/25 02:30:08;;;;;;;44.55;15.18;;;;;;;2.64;100.00;100104.97;2552142;29;20083;-90
2023/01/25 02:31:24;;;;;;;39.38;14.38;;;;;;;2.35;100.00;100105.78;2553146;29;20422;-91
2023/01/25 02:32:39;;;;;;;44.38;15.80;;;;;;;2.67;100.00;100105.94;2553757;28;20286;-91
2023/01/25 02:33:55;;;;;;;44.67;15.05;;;;;;;2.87;100.00;100099.63;2553639;28;20055;-91
2023/01/25 02:35:21;;;;;;;42.15;15.90;;;;;;;2.90;100.00;100100.56;2553661;28;20074;-91
2023/01/25 02:36:36;;;;;;;49.30;15.95;;;;;;;2.67;100.00;100098.19;2551183;29;20382;-92
2023/01/25 02:37:52;;;;;;;44.88;15.90;;;;;;;2.67;100.00;100100.78;2550930;28;20054;-90
2023/01/25 02:39:12;;;;;;;44.95;15.88;;;;;;;2.81;100.00;100100.31;2552695;29;20055;-94
2023/01/25 02:40:30;;;;;;;45.80;15.77;;;;;;;2.82;100.00;100102.06;2553109;29;20854;-93
2023/01/25 02:41:49;;;;;;;43.72;15.90;;;;;;;2.86;100.00;100100.44;2552065;28;20059;-91
2023/01/25 02:43:04;;;;;;;48.22;16.90;;;;;;;2.75;100.00;100102.69;2551137;28;20059;-90
2023/01/25 02:44:26;;;;;;;42.30;15.80;;;;;;;2.79;100.00;100101.94;2552894;29;20055;-91
2023/01/25 02:45:46;;;;;;;42.90;16.25;;;;;;;2.85;100.00;100091.81;2550686;29;20075;-91
2023/01/25 02:47:02;;;;;;;44.80;16.25;;;;;;;2.83;100.00;100090.88;2552006;29;20263;-92
2023/01/25 02:48:17;;;;;;;43.03;16.30;;;;;;;2.84;100.00;100095.22;2551645;29;20047;-91
2023/01/25 02:49:36;;;;;;;45.53;14.75;;;;;;;2.74;100.00;100088.91;2551290;28;21013;-92
2023/01/25 02:50:52;;;;;;;45.28;15.38;;;;;;;2.83;100.00;100083.13;2552927;29;20511;-93
2023/01/25 02:52:07;;;;;;;41.58;15.05;;;;;;;2.83;100.00;100090.88;2552019;29;20062;-92
2023/01/25 02:53:23;;;;;;;43.58;15.32;;;;;;;2.86;100.00;100088.38;2551149;28;20059;-92
2023/01/25 02:54:38;;;;;;;42.38;15.57;;;;;;;2.62;100.00;100083.34;2550623;29;20059;-91
2023/01/25 02:55:54;;;;;;;39.80;14.35;;;;;;;2.63;100.00;100085.09;2550956;28;20052;-92
2023/01/25 02:57:10;;;;;;;42.10;14.90;;;;;;;2.78;100.00;100082.09;2552641;29;20055;-91
2023/01/25 02:58:25;;;;;;;44.08;16.15;;;;;;;2.81;100.00;100082.22;2552766;29;20051;-91
2023/01/25 02:59:41;;;;;;;42.40;15.73;;;;;;;2.62;100.00;100081.63;2551932;29;20054;-92
2023/01/25 03:00:57;;;;;;;39.50;15.43;;;;;;;2.69;100.00;100080.09;2551927;29;20078;-91
2023/01/25 03:02:13;;;;;;;44.42;15.45;;;;;;;2.75;100.00;100071.66;2552180;29;20055;-92
2023/01/25 03:03:28;;;;;;;43.30;16.15;;;;;;;2.82;100.00;100076.19;2552021;29;20514;-92
2023/01/25 03:04:44;;;;;;;44.88;16.13;;;;;;;2.73;100.00;100071.63;2552828;28;20498;-91
2023/01/25 03:05:59;;;;;;;37.38;15.25;;;;;;;2.78;100.00;100071.75;2550871;29;20502;-92
2023/01/25 03:07:15;;;;;;;47.22;16.85;;;;;;;2.74;100.00;100070.78;2551336;28;20043;-92
2023/01/25 03:08:30;;;;;;;47.55;17.73;;;;;;;2.70;100.00;100063.75;2552273;28;20055;-92
2023/01/25 03:09:46;;;;;;;43.42;15.00;;;;;;;2.60;100.00;100061.75;2551969;29;20350;-92
2023/01/25 03:11:04;;;;;;;43.80;15.80;;;;;;;2.61;100.00;100068.66;2549590;29;20138;-93
2023/01/25 03:12:20;;;;;;;48.97;16.52;;;;;;;2.67;100.00;100063.66;2550915;29;20055;-94
2023/01/25 03:13:36;;;;;;;46.05;16.92;;;;;;;2.73;100.00;100063.88;2553102;29;20051;-92
2023/01/25 03:14:52;;;;;;;47.20;16.30;;;;;;;2.75;100.00;100063.91;2550728;29;20062;-93
2023/01/25 03:16:10;;;;;;;49.20;16.75;;;;;;;2.85;100.00;100070.22;2553056;29;20058;-92
2023/01/25 03:17:25;;;;;;;43.92;15.48;;;;;;;2.85;100.00;100060.75;2551794;29;20054;-92
2023/01/25 03:18:42;;;;;;;53.10;17.17;;;;;;;2.86;100.00;100059.94;2551775;28;20082;-93
2023/01/25 03:19:57;;;;;;;45.10;15.52;;;;;;;2.75;100.00;100059.63;2553442;28;20426;-92
2023/01/25 03:21:16;;;;;;;39.88;15.57;;;;;;;2.67;100.00;100053.31;2551150;28;20052;-91
2023/01/25 03:22:31;;;;;;;44.72;15.90;;;;;;;2.65;100.00;100053.28;2560873;28;20051;-91
2023/01/25 03:23:52;;;;;;;44.90;15.82;;;;;;;2.56;100.00;100053.00;2552004;29;20102;-92
2023/01/25 03:25:08;;;;;;;45.05;15.52;;;;;;;2.45;100.00;100056.97;2550499;29;20078;-91
2023/01/25 03:26:26;;;;;;;43.20;15.13;;;;;;;2.42;100.00;100054.28;2550715;29;20059;-94
2023/01/25 03:27:41;;;;;;;44.75;16.75;;;;;;;2.46;100.00;100057.03;2553370;29;20058;-91
2023/01/25 03:28:57;;;;;;;47.40;16.13;;;;;;;2.53;100.00;100050.34;2552475;28;20047;-92
2023/01/25 03:30:12;;;;;;;45.88;15.57;;;;;;;2.57;100.00;100054.75;2553538;28;20630;-92
2023/01/25 03:31:28;;;;;;;41.00;15.23;;;;;;;2.53;100.00;100042.59;2550814;29;20071;-92
2023/01/25 03:32:44;;;;;;;44.80;16.23;;;;;;;2.69;100.00;100051.66;2552830;29;20110;-91
2023/01/25 03:33:59;;;;;;;44.78;15.25;;;;;;;2.77;100.00;100051.88;2551199;29;20514;-92
2023/01/25 03:35:15;;;;;;;41.78;15.40;;;;;;;2.78;100.00;100046.78;2551929;29;20517;-92
2023/01/25 03:36:31;;;;;;;45.72;16.15;;;;;;;2.78;100.00;100044.19;2552801;29;20115;-92
2023/01/25 03:37:47;;;;;;;43.47;15.65;;;;;;;2.71;100.00;100044.81;2552096;28;20466;-92
2023/01/25 03:39:02;;;;;;;46.00;15.50;;;;;;;2.66;100.00;100039.53;2553187;28;20055;-91
2023/01/25 03:40:18;;;;;;;44.30;17.52;;;;;;;2.78;100.00;100044.19;2551646;29;20066;-91
2023/01/25 03:41:34;;;;;;;39.13;15.27;;;;;;;2.74;100.00;100037.19;2551954;29;20174;-91
2023/01/25 03:42:49;;;;;;;42.22;15.35;;;;;;;2.71;100.00;100039.66;2551788;28;20056;-91
2023/01/25 03:44:05;;;;;;;40.85;15.18;;;;;;;2.67;100.00;100042.97;2552033;29;20052;-92
2023/01/25 03:45:20;;;;;;;42.38;16.00;;;;;;;2.61;100.00;100038.50;2553091;29;20142;-92
2023/01/25 03:46:40;;;;;;;42.30;16.27;;;;;;;2.59;100.00;100027.25;2550653;28;20400;-91
2023/01/25 03:47:55;;;;;;;46.85;17.10;;;;;;;2.58;100.00;100024.59;2552212;29;20610;-92
2023/01/25 03:49:11;;;;;;;43.55;15.57;;;;;;;2.34;100.00;100017.88;2553175;28;20074;-91
2023/01/25 03:50:27;;;;;;;39.75;14.95;;;;;;;2.31;100.00;100021.22;2551247;28;20646;-91
2023/01/25 03:51:43;;;;;;;41.63;16.02;;;;;;;2.40;100.00;100011.19;2551247;29;20163;-91
2023/01/25 03:53:05;;;;;;;47.60;16.27;;;;;;;2.50;100.00;100014.91;2552840;29;20051;-91
2023/01/25 03:54:20;;;;;;;45.40;16.20;;;;;;;2.59;100.00;100013.44;2550310;29;20079;-91
2023/01/25 03:55:36;;;;;;;46.95;16.40;;;;;;;2.72;100.00;100014.69;2550305;29;20111;-91
2023/01/25 03:56:51;;;;;;;51.95;18.52;;;;;;;2.63;100.00;100010.97;2550525;29;20055;-91
2023/01/25 03:58:07;;;;;;;51.63;18.90;;;;;;;2.60;100.00;100012.63;2550687;29;20052;-92
2023/01/25 03:59:22;;;;;;;53.08;19.20;;;;;;;2.72;100.00;100012.09;2551612;28;20063;-94
2023/01/25 04:00:38;;;;;;;54.67;18.27;;;;;;;2.78;100.00;100007.06;2551662;28;20059;-91
2023/01/25 04:01:54;;;;;;;51.42;19.40;;;;;;;2.76;100.00;100012.22;2550501;29;20052;-91
2023/01/25 04:03:10;;;;;;;53.22;19.02;;;;;;;2.63;100.00;100004.94;2552271;29;20077;-92
2023/01/25 04:04:25;;;;;;;58.80;21.65;;;;;;;2.40;100.00;100002.53;2552697;28;20054;-91
2023/01/25 04:05:41;;;;;;;57.70;19.55;;;;;;;2.66;100.00;100011.09;2551157;28;20079;-92
2023/01/25 04:06:57;;;;;;;51.05;17.42;;;;;;;2.76;100.00;100013.91;2551190;28;20371;-92
2023/01/25 04:08:13;;;;;;;49.65;17.52;;;;;;;2.83;100.00;100008.09;2550048;29;20062;-92
2023/01/25 04:09:28;;;;;;;48.28;17.23;;;;;;;2.85;100.00;100011.59;2552743;29;20930;-91
2023/01/25 04:10:51;;;;;;;45.33;15.85;;;;;;;2.83;100.00;100010.69;2551202;28;20087;-90
2023/01/25 04:12:06;;;;;;;41.97;16.27;;;;;;;2.74;100.00;100007.84;2550475;28;20052;-91
2023/01/25 04:13:23;;;;;;;48.60;16.50;;;;;;;2.90;100.00;100004.84;2551054;29;20062;-91
2023/01/25 04:14:39;;;;;;;43.67;15.57;;;;;;;2.84;100.00;100007.28;2551454;28;20775;-92
2023/01/25 04:15:55;;;;;;;46.22;15.82;;;;;;;2.76;100.00;100006.16;2550163;29;20059;-91
2023/01/25 04:17:10;;;;;;;45.15;16.90;;;;;;;2.65;100.00;99999.00;2552119;29;20083;-92
2023/01/25 04:18:26;;;;;;;38.40;15.25;;;;;;;2.68;100.00;100004.25;2552631;28;20055;-92
2023/01/25 04:19:41;;;;;;;43.88;15.68;;;;;;;2.75;100.00;100000.13;2551165;28;20503;-92
2023/01/25 04:20:57;;;;;;;46.65;17.13;;;;;;;2.73;100.00;100003.50;2549541;29;20527;-91
2023/01/25 04:22:13;;;;;;;48.10;16.98;;;;;;;2.73;100.00;100003.50;2552008;29;20055;-92
2023/01/25 04:23:28;;;;;;;44.08;16.27;;;;;;;2.74;100.00;99994.91;2549586;29;20138;-91
2023/01/25 04:24:44;;;;;;;47.63;17.15;;;;;;;2.79;100.00;99994.19;2549933;28;20051;-91
2023/01/25 04:26:04;;;;;;;43.13;16.13;;;;;;;2.81;100.00;99995.13;2551812;28;20063;-92
2023/01/25 04:27:19;;;;;;;45.28;15.93;;;;;;;2.61;100.00;99993.69;2550475;28;20048;-92
2023/01/25 04:28:35;;;;;;;44.08;15.98;;;;;;;2.67;100.00;99992.16;2550447;29;20051;-91
2023/01/25 04:29:50;;;;;;;43.22;15.88;;;;;;;2.59;100.00;99991.03;2550894;28;20224;-91
2023/01/25 04:31:06;;;;;;;43.33;14.82;;;;;;;2.48;100.00;99988.16;2550723;28;20487;-92
2023/01/25 04:32:22;;;;;;;42.47;15.38;;;;;;;2.45;100.00;99988.06;2551522;29;20062;-91
2023/01/25 04:33:37;;;;;;;45.50;15.43;;;;;;;2.62;100.00;99985.09;2551003;29;20247;-93
2023/01/25 04:34:53;;;;;;;38.88;14.88;;;;;;;2.68;100.00;99987.84;2549535;29;20502;-93
2023/01/25 04:36:08;;;;;;;40.13;14.60;;;;;;;2.62;100.00;99993.72;2551939;29;20220;-91
2023/01/25 04:37:24;;;;;;;37.00;13.57;;;;;;;2.52;100.00;99983.94;2551928;28;20054;-91
2023/01/25 04:38:41;;;;;;;33.95;13.15;;;;;;;2.66;100.00;99990.41;2549788;29;20102;-91
2023/01/25 04:39:56;;;;;;;41.45;15.02;;;;;;;2.64;100.00;99986.00;2551399;29;20086;-90
2023/01/25 04:41:12;;;;;;;40.17;14.85;;;;;;;2.80;100.00;99988.19;2551316;29;20058;-93
2023/01/25 04:42:27;;;;;;;40.42;14.60;;;;;;;2.78;100.00;99994.16;2549976;28;20392;-90
2023/01/25 04:43:43;;;;;;;37.67;15.45;;;;;;;2.87;100.00;99993.56;2551072;28;20044;-91
2023/01/25 04:44:59;;;;;;;38.33;14.05;;;;;;;2.87;100.00;99989.25;2550267;29;20562;-90
2023/01/25 04:46:14;;;;;;;40.42;16.08;;;;;;;2.62;100.00;99990.25;2552007;29;20051;-91
2023/01/25 04:47:30;;;;;;;39.60;14.55;;;;;;;2.52;100.00;99986.53;2551098;28;20052;-90
2023/01/25 04:48:45;;;;;;;43.88;14.57;;;;;;;2.36;100.00;99988.63;2550607;29;20044;-89
2023/01/25 04:50:01;;;;;;;37.22;14.35;;;;;;;2.43;100.00;99986.25;2551151;29;20047;-90
2023/01/25 04:51:17;;;;;;;43.20;15.32;;;;;;;2.39;100.00;99988.75;2552641;28;20047;-90
2023/01/25 04:52:32;;;;;;;41.72;14.95;;;;;;;2.40;100.00;99981.84;2550384;29;20051;-89
2023/01/25 04:53:48;;;;;;;41.70;14.80;;;;;;;2.36;100.00;99985.19;2549764;29;20114;-91
2023/01/25 04:55:04;;;;;;;44.60;15.15;;;;;;;2.39;100.00;99986.16;2551215;28;20495;-89
2023/01/25 04:56:20;;;;;;;45.50;15.25;;;;;;;2.43;100.00;99981.06;2549783;29;20058;-90
2023/01/25 04:57:35;;;;;;;37.95;14.88;;;;;;;2.63;100.00;99982.53;2549944;29;20056;-89
2023/01/25 04:58:51;;;;;;;39.35;14.40;;;;;;;2.71;100.00;99987.91;2551947;29;20048;-89
2023/01/25 05:00:07;;;;;;;39.40;15.38;;;;;;;2.73;100.00;99982.81;2550943;28;20141;-89
2023/01/25 05:01:23;;;;;;;45.47;15.40;;;;;;;2.73;100.00;99980.22;2550179;29;20062;-92
2023/01/25 05:02:39;;;;;;;42.85;14.60;;;;;;;2.77;100.00;99984.63;2559032;28;20054;-91
2023/01/25 05:03:54;;;;;;;42.60;15.90;;;;;;;2.70;100.00;99993.06;2556663;28;20183;-89
2023/01/25 05:05:10;;;;;;;44.58;15.50;;;;;;;2.71;100.00;99980.16;2552117;29;20498;-89
2023/01/25 05:06:26;;;;;;;44.53;16.08;;;;;;;2.72;100.00;99984.50;2550282;29;20067;-90
2023/01/25 05:07:41;;;;;;;43.63;14.18;;;;;;;2.36;100.00;99987.78;2552149;28;20542;-89
2023/01/25 05:08:57;;;;;;;41.63;15.25;;;;;;;2.46;100.00;99986.34;2550519;29;20086;-90
2023/01/25 05:10:13;;;;;;;47.10;17.05;;;;;;;2.51;100.00;99982.16;2551129;29;20908;-91
2023/01/25 05:11:28;;;;;;;49.70;15.30;;;;;;;2.50;100.00;99983.00;2550434;28;20051;-90
2023/01/25 05:12:44;;;;;;;41.92;15.80;;;;;;;2.56;100.00;99980.63;2552289;29;20510;-91
2023/01/25 05:14:00;;;;;;;42.38;14.20;;;;;;;2.59;100.00;99982.41;2550251;29;20059;-89
2023/01/25 05:15:15;;;;;;;46.30;16.02;;;;;;;2.55;100.00;99981.44;2550231;29;20510;-91
2023/01/25 05:16:31;;;;;;;41.55;14.50;;;;;;;2.51;100.00;99977.00;2552032;28;20054;-90
2023/01/25 05:17:46;;;;;;;44.78;15.63;;;;;;;2.54;100.00;99975.38;2550671;28;20056;-90
2023/01/25 05:19:02;;;;;;;46.17;15.45;;;;;;;2.54;100.00;99975.38;2549200;29;20064;-91
2023/01/25 05:20:18;;;;;;;36.80;14.82;;;;;;;2.62;100.00;99967.00;2551817;29;20498;-90
2023/01/25 05:23:07;;;;;;;39.03;14.52;;;;;;;2.73;100.00;99969.88;2552121;29;20055;-90
2023/01/25 05:24:28;;;;;;;41.20;15.57;;;;;;;2.79;100.00;99973.50;2550649;28;20048;-89
2023/01/25 05:27:19;;;;;;;48.15;16.73;;;;;;;2.78;100.00;99974.34;2552155;29;20058;-89
2023/01/25 05:28:35;;;;;;;46.40;17.15;;;;;;;2.54;100.00;99966.75;2550619;29;20134;-90
2023/01/25 05:29:51;;;;;;;43.38;15.20;;;;;;;2.33;100.00;99980.78;2551178;29;20514;-90
2023/01/25 05:31:06;;;;;;;52.17;17.67;;;;;;;2.26;100.00;99971.13;2550516;28;20517;-90
2023/01/25 05:32:23;;;;;;;47.90;15.80;;;;;;;2.50;100.00;99977.81;2550878;28;20051;-91
2023/01/25 05:33:39;;;;;;;55.58;18.33;;;;;;;2.67;100.00;99971.47;2552238;28;20499;-90
2023/01/25 05:34:54;;;;;;;54.97;17.88;;;;;;;2.64;100.00;99973.06;2552696;29;20390;-90
2023/01/25 05:36:10;;;;;;;50.72;17.17;;;;;;;2.49;100.00;99973.50;2552809;29;20138;-90
2023/01/25 05:37:25;;;;;;;51.13;18.88;;;;;;;2.52;100.00;99973.59;2552596;29;20411;-90
2023/01/25 05:38:41;;;;;;;53.75;18.63;;;;;;;2.54;100.00;99972.78;2552605;28;20115;-90
2023/01/25 05:39:57;;;;;;;49.70;17.40;;;;;;;2.60;100.00;99969.50;2553237;28;20051;-83
2023/01/25 05:41:12;;;;;;;48.35;18.80;;;;;;;2.74;100.00;99975.09;2552497;29;20165;-86
2023/01/25 05:42:28;;;;;;;53.17;18.30;;;;;;;2.80;100.00;99977.00;2554244;29;20047;-86
2023/01/25 05:43:47;;;;;;;52.58;17.33;;;;;;;2.70;100.00;99980.13;2552635;29;20051;-83
2023/01/25 05:45:03;;;;;;;50.80;17.95;;;;;;;2.61;100.00;99978.16;2553692;29;20082;-83
2023/01/25 05:46:19;;;;;;;52.45;19.25;;;;;;;2.70;100.00;99970.66;2552039;28;20054;-84
2023/01/25 05:47:34;;;;;;;46.60;17.30;;;;;;;2.63;100.00;99974.78;2551342;29;20103;-83
2023/01/25 05:48:50;;;;;;;54.70;18.08;;;;;;;2.65;100.00;99970.53;2553416;29;20052;-83
2023/01/25 05:50:06;;;;;;;49.63;17.13;;;;;;;2.40;100.00;99972.41;2553188;29;20083;-86
2023/01/25 05:51:22;;;;;;;45.17;16.65;;;;;;;2.50;100.00;99970.97;2552378;28;20051;-84
2023/01/25 05:52:37;;;;;;;54.40;17.35;;;;;;;2.58;100.00;99975.47;2551868;29;20061;-87
2023/01/25 05:53:54;;;;;;;46.47;16.02;;;;;;;2.55;100.00;99976.28;2553664;28;20043;-83
2023/01/25 05:55:10;;;;;;;43.40;16.88;;;;;;;2.57;100.00;99974.59;2551844;29;20070;-85
2023/01/25 05:56:25;;;;;;;47.75;16.13;;;;;;;2.67;100.00;99970.56;2553792;28;20055;-83